• Join FlightAware (Why Join?)
  • Login
  • US Flag 
08:35PM EST


 

Airport Tracker/Info


-or-


 

Live Flight TrackerFlight Track Log ✈ FLX535 ✈ 02-May-2012 ✈ KCLT - KRIC

Flight Track Log - Related Links

Times and Time Zones

All times are in EDT time to prevent confusion due to time zone crossing. See the FLX535 flight status page for this flight to view local times or setup timezone preferences in your user account.

Time Position Orientation Groundspeed Altitude Reporting Facility
EDT Latitude Longitude Course Direction KTS MPH feet Rate Location/Type
12:37AM 35.1992 -80.9378 97° East 73 84 1,400  Level Atlanta Center
12:38AM 35.1964 -80.9100 88° East 113 130 2,200 840 Climbing Atlanta Center
12:39AM 35.1975 -80.8694 84° East 118 136 3,100 780 Climbing Atlanta Center
12:40AM 35.2006 -80.8311 54° Northeast 123 142 3,800 780 Climbing Atlanta Center
12:41AM 35.2206 -80.7972 53° Northeast 129 148 4,600 540 Climbing Atlanta Center
12:42AM 35.2447 -80.7581 58° Northeast 137 158 5,000 360 Climbing Atlanta Center
12:43AM 35.2644 -80.7192 57° Northeast 150 173 5,400 420 Climbing Atlanta Center
12:44AM 35.2864 -80.6778 56° Northeast 148 170 5,900 240 Climbing Atlanta Center
12:45AM 35.3122 -80.6308 52° Northeast 163 188 5,900  Level Atlanta Center
12:46AM 35.3419 -80.5836 45° Northeast 173 199 6,000  Climbing Atlanta Center
12:47AM 35.3764 -80.5417 54° Northeast 178 205 5,900 120 Descending Atlanta Center
12:48AM 35.4061 -80.4919 50° Northeast 174 200 6,300 60 Climbing Atlanta Center
12:57AM 35.6817 -80.0797 51° Northeast 194 223 7,000  Climbing Washington Center
01:41AM 37.0000 -78.0500 28° Northeast 175 201 6,900 -60 Descending Potomac TRACON
01:42AM 37.0500 -78.0167 67° East 172 198 6,900  Level Potomac TRACON
01:43AM 37.0667 -77.9667 39° Northeast 169 194 7,000  Climbing Potomac TRACON
01:44AM 37.1167 -77.9167 50° Northeast 171 197 7,000 -120 Level Potomac TRACON
01:45AM 37.1500 -77.8667 50° Northeast 175 201 6,800 -540 Descending Potomac TRACON
01:46AM 37.1833 -77.8167 50° Northeast 194 223 5,900 -840 Descending Potomac TRACON
01:47AM 37.2167 -77.7667 50° Northeast 197 227 5,200 -600 Descending Potomac TRACON
01:48AM 37.2500 -77.7167 47° Northeast 204 235 4,700 -600 Descending Potomac TRACON
01:49AM 37.3000 -77.6500 50° Northeast 198 228 4,100 -540 Descending Potomac TRACON
01:50AM 37.3333 -77.6000 50° Northeast 195 224 3,600 -480 Descending Potomac TRACON
01:51AM 37.3667 -77.5500 50° Northeast 190 219 3,200 -420 Descending Potomac TRACON
01:52AM 37.4000 -77.5000 50° Northeast 198 228 2,800 -480 Descending Potomac TRACON
01:53AM 37.4333 -77.4500 50° Northeast 192 221 2,400 -540 Descending Potomac TRACON
01:54AM 37.4667 -77.4000 38° Northeast 184 212 1,800 -540 Descending Potomac TRACON
01:55AM 37.5000 -77.3667 38° Northeast 158 182 1,400 -480 Descending Potomac TRACON
01:56AM 37.5333 -77.3333 159° South 140 161 900 -540 Descending Potomac TRACON
02:04AM 37.1985 -77.1716 339° North  Level Estimated
02:05AM 37.5000 -77.3167 335° Northwest  Level FlightAware Approximate
02:06AM 37.5411 -77.3405 155° Southeast  Level Estimated
02:07AM 37.5000 -77.3167 335° Northwest  Level FlightAware Approximate
02:08AM 37.5411 -77.3405 155° Southeast  Level Estimated
02:09AM 37.5000 -77.3167 335° Northwest  Level FlightAware Approximate
02:10AM 37.5411 -77.3405 155° Southeast  Level Estimated
02:11AM 37.5000 -77.3167 335° Northwest  Level FlightAware Approximate
02:12AM 37.5411 -77.3405 155° Southeast  Level Estimated
02:13AM 37.5000 -77.3167 335° Northwest  Level FlightAware Approximate
02:14AM 37.5411 -77.3405 155° Southeast  Level Estimated
02:15AM 37.5000 -77.3167 335° Northwest  Level FlightAware Approximate
02:16AM 37.5411 -77.3405 335° Northwest  Level Estimated